createdAt,value
2019-03-04T00:01:50.489Z,4.04
2019-03-04T00:06:58.154Z,4.02
2019-03-04T00:12:05.762Z,4.16
2019-03-04T00:17:13.529Z,4.04
2019-03-04T00:22:21.170Z,4.08
2019-03-04T00:27:28.990Z,4.04
2019-03-04T00:32:36.607Z,3.77
2019-03-04T00:37:44.182Z,3.54
2019-03-04T00:42:51.861Z,3.88
2019-03-04T00:47:59.846Z,3.88
2019-03-04T00:53:07.456Z,3.89
2019-03-04T00:58:15.312Z,3.68
2019-03-04T01:03:22.951Z,3.67
2019-03-04T01:08:30.694Z,4.16
2019-03-04T01:13:38.413Z,3.71
2019-03-04T01:18:46.190Z,4.07
2019-03-04T01:23:53.780Z,3.67
2019-03-04T01:29:01.558Z,3.87
2019-03-04T01:34:09.289Z,3.70
2019-03-04T01:39:16.971Z,3.47
2019-03-04T01:44:24.565Z,3.77
2019-03-04T01:49:32.188Z,3.41
2019-03-04T01:54:39.786Z,3.39
2019-03-04T01:59:47.377Z,3.21
2019-03-04T02:04:54.983Z,2.93
2019-03-04T02:10:02.761Z,3.55
2019-03-04T02:15:10.487Z,3.09
2019-03-04T02:20:18.194Z,2.93
2019-03-04T02:25:25.859Z,2.80
2019-03-04T02:30:33.504Z,2.91
2019-03-04T02:35:41.234Z,2.74
2019-03-04T02:40:48.977Z,2.96
2019-03-04T02:45:56.598Z,2.90
2019-03-04T02:51:04.345Z,2.53
2019-03-04T02:56:11.935Z,2.68
2019-03-04T03:01:19.663Z,2.76
2019-03-04T03:06:27.468Z,2.51
2019-03-04T03:11:35.555Z,2.40
2019-03-04T03:16:44.045Z,2.45
2019-03-04T03:21:52.728Z,2.21
2019-03-04T03:27:00.400Z,2.47
2019-03-04T03:32:08.014Z,2.15
2019-03-04T03:37:15.630Z,2.21
2019-03-04T03:42:23.275Z,2.26
2019-03-04T03:47:30.922Z,2.22
2019-03-04T03:52:38.559Z,2.39
2019-03-04T03:57:46.165Z,2.34
2019-03-04T04:02:53.879Z,3.57
2019-03-04T04:08:02.643Z,2.35
2019-03-04T04:13:10.354Z,2.47
2019-03-04T04:18:17.959Z,2.47
2019-03-04T04:23:25.749Z,2.44
2019-03-04T04:28:34.583Z,2.78
2019-03-04T04:33:42.301Z,2.67
2019-03-04T04:38:49.945Z,2.75
2019-03-04T04:43:57.594Z,2.81
2019-03-04T04:49:05.255Z,2.64
2019-03-04T04:54:13.021Z,2.55
2019-03-04T04:59:20.648Z,2.18
2019-03-04T05:04:28.347Z,2.96
2019-03-04T05:09:35.966Z,2.24
2019-03-04T05:14:43.871Z,1.76
2019-03-04T05:19:51.572Z,2.03
2019-03-04T05:24:59.198Z,1.92
2019-03-04T05:30:06.857Z,1.68
2019-03-04T05:35:14.456Z,1.77
2019-03-04T05:40:22.133Z,1.58
2019-03-04T05:45:30.846Z,1.53
2019-03-04T05:50:38.501Z,1.56
2019-03-04T05:55:46.213Z,1.54
2019-03-04T06:00:53.953Z,1.37
2019-03-04T06:06:01.750Z,1.53
2019-03-04T06:11:09.420Z,1.50
2019-03-04T06:16:17.267Z,1.62
2019-03-04T06:21:24.958Z,1.73
2019-03-04T06:26:34.798Z,1.66
2019-03-04T06:31:42.419Z,1.53
2019-03-04T06:36:50.129Z,1.47
2019-03-04T06:41:57.733Z,1.58
2019-03-04T06:47:05.354Z,1.62
2019-03-04T06:52:13.225Z,1.64
2019-03-04T06:57:28.271Z,1.73
2019-03-04T07:02:28.193Z,1.57
2019-03-04T07:07:35.918Z,1.51
2019-03-04T07:12:43.666Z,1.64
2019-03-04T07:17:51.275Z,1.55
2019-03-04T07:23:00.006Z,1.49
2019-03-04T07:28:08.005Z,0.89
2019-03-04T07:33:15.838Z,0.74
2019-03-04T07:38:24.568Z,0.72
2019-03-04T07:43:32.214Z,0.77
2019-03-04T07:48:39.889Z,0.77
2019-03-04T07:53:47.728Z,0.70
2019-03-04T07:58:55.409Z,0.70
2019-03-04T08:04:03.095Z,0.78
2019-03-04T08:09:10.889Z,0.85
2019-03-04T08:14:18.581Z,0.97
2019-03-04T08:19:26.241Z,0.83
2019-03-04T08:24:33.888Z,0.91
2019-03-04T08:29:41.494Z,0.77
2019-03-04T08:34:49.132Z,0.79
2019-03-04T08:39:56.893Z,0.89
2019-03-04T08:45:04.546Z,0.95
2019-03-04T08:50:12.379Z,0.71
2019-03-04T08:55:19.958Z,0.95
2019-03-04T09:00:27.720Z,0.91
2019-03-04T09:05:35.372Z,1.03
2019-03-04T09:10:43.201Z,1.06
2019-03-04T09:15:50.839Z,1.20
2019-03-04T09:20:58.730Z,1.11
2019-03-04T09:26:06.359Z,1.44
2019-03-04T09:31:14.201Z,1.32
2019-03-04T09:36:22.003Z,1.21
2019-03-04T09:41:29.801Z,1.14
2019-03-04T09:46:37.411Z,1.29
2019-03-04T09:51:45.143Z,1.28
2019-03-04T09:56:52.806Z,1.37
2019-03-04T10:02:00.848Z,1.29
2019-03-04T10:07:08.463Z,1.16
2019-03-04T10:12:16.175Z,1.52
2019-03-04T10:17:23.754Z,1.40
2019-03-04T10:22:31.455Z,1.54
2019-03-04T10:27:39.132Z,1.64
2019-03-04T10:32:46.962Z,1.33
2019-03-04T10:37:54.598Z,1.23
2019-03-04T10:43:02.512Z,1.23
2019-03-04T10:48:10.070Z,1.11
2019-03-04T10:53:18.758Z,0.89
2019-03-04T10:58:26.449Z,0.80
2019-03-04T11:03:34.176Z,0.68
2019-03-04T11:08:41.798Z,0.62
2019-03-04T11:13:49.458Z,0.70
2019-03-04T11:18:57.044Z,0.59
2019-03-04T11:24:04.829Z,0.57
2019-03-04T11:29:13.345Z,0.64
2019-03-04T11:34:19.670Z,0.79
2019-03-04T11:39:27.348Z,0.89
2019-03-04T11:44:35.087Z,0.90
2019-03-04T11:49:43.682Z,1.15
2019-03-04T11:54:51.641Z,1.03
2019-03-04T11:59:59.221Z,1.17
2019-03-04T12:05:06.930Z,1.30
2019-03-04T12:10:14.566Z,1.36
2019-03-04T12:15:22.437Z,1.33
2019-03-04T12:20:30.034Z,1.53
2019-03-04T12:25:37.673Z,1.26
2019-03-04T12:30:45.441Z,1.29
2019-03-04T12:35:53.258Z,1.35
2019-03-04T12:41:00.903Z,1.35
2019-03-04T12:46:08.605Z,1.36
2019-03-04T12:51:23.277Z,1.31
2019-03-04T12:56:23.410Z,1.62
2019-03-04T13:01:31.215Z,1.22
2019-03-04T13:06:38.826Z,1.44
2019-03-04T13:11:46.661Z,1.54
2019-03-04T13:16:54.300Z,1.36
2019-03-04T13:22:08.422Z,1.44
2019-03-04T13:27:09.362Z,1.57
2019-03-04T13:32:16.989Z,1.53
2019-03-04T13:37:24.827Z,2.52
2019-03-04T13:42:32.534Z,1.99
2019-03-04T13:47:40.216Z,1.76
2019-03-04T13:52:47.873Z,1.73
2019-03-04T13:57:55.717Z,1.68
2019-03-04T14:03:03.406Z,1.79
2019-03-04T14:08:11.058Z,2.25
2019-03-04T14:13:18.766Z,2.56
2019-03-04T14:18:27.305Z,2.01
2019-03-04T14:23:35.007Z,2.00
2019-03-04T14:28:42.790Z,2.21
2019-03-04T14:33:50.442Z,2.11
2019-03-04T14:38:58.098Z,1.90
2019-03-04T14:44:05.723Z,2.27
2019-03-04T14:49:13.591Z,2.73
2019-03-04T14:54:21.199Z,2.79
2019-03-04T14:59:28.910Z,2.61
2019-03-04T15:04:36.698Z,2.18
2019-03-04T15:09:49.288Z,1.97
2019-03-04T15:14:51.698Z,2.19
2019-03-04T15:20:08.938Z,2.15
2019-03-04T15:25:06.793Z,2.25
2019-03-04T15:30:14.586Z,2.18
2019-03-04T15:35:22.406Z,2.31
2019-03-04T15:40:30.023Z,2.42
2019-03-04T15:45:37.790Z,2.33
2019-03-04T15:50:45.909Z,2.48
2019-03-04T15:55:53.598Z,2.48
2019-03-04T16:01:01.325Z,2.27
2019-03-04T16:06:08.903Z,2.61
2019-03-04T16:11:16.501Z,2.69
2019-03-04T16:16:24.149Z,2.43
2019-03-04T16:21:31.925Z,2.55
2019-03-04T16:26:39.549Z,2.55
2019-03-04T16:31:47.180Z,2.85
2019-03-04T16:36:54.905Z,2.49
2019-03-04T16:42:03.073Z,2.70
2019-03-04T16:47:10.825Z,2.77
2019-03-04T16:52:18.506Z,2.74
2019-03-04T16:57:26.137Z,2.52
2019-03-04T17:02:33.920Z,2.46
2019-03-04T17:07:41.569Z,2.59
2019-03-04T17:12:49.312Z,2.28
2019-03-04T17:17:57.101Z,2.10
2019-03-04T17:23:04.761Z,2.37
2019-03-04T17:28:12.391Z,2.25
2019-03-04T17:33:20.058Z,2.39
2019-03-04T17:38:27.768Z,2.66
2019-03-04T17:43:35.573Z,2.42
2019-03-04T17:48:43.230Z,2.34
2019-03-04T17:53:50.901Z,2.90
2019-03-04T17:58:58.585Z,2.15
2019-03-04T18:04:06.246Z,2.23
2019-03-04T18:09:14.027Z,1.84
2019-03-04T18:14:21.757Z,2.04
2019-03-04T18:19:29.381Z,2.17
2019-03-04T18:24:37.019Z,1.97
2019-03-04T18:29:44.626Z,2.03
2019-03-04T18:34:52.269Z,1.97
2019-03-04T18:39:59.938Z,1.94
2019-03-04T18:45:07.674Z,1.99
2019-03-04T18:50:15.438Z,1.98
2019-03-04T18:55:23.151Z,2.13
2019-03-04T19:00:30.847Z,2.34
2019-03-04T19:05:38.509Z,2.38
2019-03-04T19:10:46.415Z,2.54
2019-03-04T19:15:54.048Z,2.60
2019-03-04T19:21:02.719Z,2.40
2019-03-04T19:26:10.387Z,2.80
2019-03-04T19:31:18.142Z,2.70
2019-03-04T19:36:25.954Z,2.48
2019-03-04T19:41:33.573Z,2.55
2019-03-04T19:46:42.359Z,2.63
2019-03-04T19:51:50.099Z,2.80
2019-03-04T19:56:57.775Z,2.42
2019-03-04T20:02:05.579Z,2.28
2019-03-04T20:07:13.442Z,2.09
2019-03-04T20:12:22.237Z,2.37
2019-03-04T20:17:30.032Z,2.25
2019-03-04T20:22:37.991Z,2.53
2019-03-04T20:27:45.793Z,2.71
2019-03-04T20:32:53.434Z,2.52
2019-03-04T20:38:01.269Z,2.61
2019-03-04T20:43:08.941Z,2.53
2019-03-04T20:48:16.609Z,2.67
2019-03-04T20:53:24.285Z,2.55
2019-03-04T20:58:32.022Z,3.03
2019-03-04T21:03:39.630Z,2.69
2019-03-04T21:08:47.436Z,2.76
2019-03-04T21:13:55.377Z,2.96
2019-03-04T21:19:03.161Z,2.90
2019-03-04T21:24:10.927Z,2.70
2019-03-04T21:29:18.545Z,3.03
2019-03-04T21:34:26.336Z,2.78
2019-03-04T21:39:34.154Z,3.51
2019-03-04T21:44:41.761Z,3.15
2019-03-04T21:49:49.509Z,3.18
2019-03-04T21:54:57.086Z,2.84
2019-03-04T22:00:04.778Z,2.90
2019-03-04T22:05:12.458Z,3.19
2019-03-04T22:10:20.194Z,2.91
2019-03-04T22:15:27.869Z,3.00
2019-03-04T22:20:35.667Z,3.34
2019-03-04T22:25:43.346Z,3.41
2019-03-04T22:30:51.158Z,3.63
2019-03-04T22:35:58.882Z,3.36
2019-03-04T22:41:06.630Z,3.80
2019-03-04T22:46:14.269Z,3.73
2019-03-04T22:51:21.878Z,3.95
2019-03-04T22:56:29.712Z,3.78
2019-03-04T23:01:37.444Z,3.94
2019-03-04T23:06:45.022Z,4.39
2019-03-04T23:11:52.801Z,3.59
2019-03-04T23:17:00.521Z,3.86
2019-03-04T23:22:08.187Z,4.18
2019-03-04T23:27:15.776Z,3.81
2019-03-04T23:32:24.318Z,4.03
2019-03-04T23:37:32.089Z,3.90
2019-03-04T23:42:39.744Z,4.19
2019-03-04T23:47:47.348Z,3.94
2019-03-04T23:52:55.054Z,3.80
2019-03-04T23:58:03.685Z,3.47
